CJY9 weather

CLOSED La Loche Seaplane Base
La Loche, Saskatchewan, Canada

Public forecast

Using degrees Celsius for public forecast. Weather courtesy of forecast.io.

Closest aviation weather report (METAR) to La Loche Seaplane Base

Closest report is Buffalo Narrows Airport, 51.0 nm (94.4 km) SE. Retrieved 2020/06/01 01:00 UTC (13 minutes ago):

CYVT 010100Z AUTO 13009G17KT 9SM OVC065 22/09 A2945 RMK SLP978 DENSITY ALT 3000FT

Closest aviation forecast (TAF) to La Loche Seaplane Base

Closest forecast is Buffalo Narrows Airport, 51.0 nm (94.4 km) SE. Retrieved 2020/05/31 21:00 UTC (4 hours ago):

TAF CYVT 312038Z 3121/0104 14015G25KT P6SM SCT120 BKN200 FM312200 13012G22KT P6SM SCT070 OVC100 TEMPO 3122/0104 P6SM -SHRA VCTS OVC070CB RMK FCST BASED ON AUTO OBS NXT FCST WILL BE ISSUED AT 011345Z